.
WxDataArchive / Data Records for 2016-04-28
2016-04-27 April 2016 2016-04-29

Data Records for Thursday, 28 April 2016

Time	Temp	Chill	HIndex	Humid	Dewpt	 Wind 	HiWind	WindDir	Rain 	Barom
-----	----	-----	------	-----	-----	------	------	-------	-----	-----
00:00	48.8	48.8	48.8	62	36.4	2	5	90	0.00	29.877 
00:05	48.6	48.6	48.6	62	36.2	2	6	90	0.00	29.877 
00:10	48.6	48.6	48.6	64	37.0	2	5	90	0.00	29.877 
00:15	48.5	48.5	48.5	65	37.3	2	4	112	0.00	29.879 
00:20	48.3	48.3	48.3	66	37.5	1	4	90	0.00	29.879 
00:25	48.2	48.2	48.2	67	37.8	1	3	90	0.00	29.879 
00:30	47.9	47.9	47.9	69	38.2	1	3	90	0.00	29.882 
00:35	47.7	47.7	47.7	70	38.4	1	3	90	0.00	29.882 
00:40	47.4	47.4	47.4	73	39.2	1	3	68	0.01	29.882 
00:45	47.3	47.3	47.3	74	39.4	1	3	68	0.00	29.884 
00:50	46.8	46.8	46.8	75	39.3	1	4	90	0.01	29.884 
00:55	46.7	46.7	46.7	77	39.9	1	4	90	0.00	29.884 
01:00	46.4	46.4	46.4	79	40.2	1	3	112	0.01	29.884 
01:05	46.1	46.1	46.1	80	40.3	0	3	112	0.00	29.884 
01:10	45.8	45.8	45.8	81	40.3	1	3	112	0.01	29.884 
01:15	45.5	45.5	45.5	82	40.3	1	2	112	0.00	29.879 
01:20	45.4	45.4	45.4	83	40.5	1	3	112	0.01	29.879 
01:25	45.2	45.2	45.2	83	40.3	1	4	112	0.01	29.879 
01:30	45.1	45.1	45.1	83	40.3	2	4	112	0.01	29.879 
01:35	44.9	44.9	44.9	83	40.1	1	4	112	0.02	29.879 
01:40	44.8	44.8	44.8	84	40.3	0	3	112	0.01	29.879 
01:45	44.8	44.8	44.8	85	40.6	1	3	112	0.01	29.879 
01:50	44.6	44.6	44.6	86	40.7	0	3	112	0.02	29.879 
01:55	44.5	44.5	44.5	86	40.6	1	5	112	0.01	29.879 
02:00	44.3	44.3	44.3	87	40.7	1	3	112	0.01	29.869 
02:05	44.2	44.2	44.2	87	40.6	2	7	112	0.01	29.869 
02:10	44.2	44.2	44.2	87	40.6	1	3	112	0.01	29.869 
02:15	44.2	44.2	44.2	87	40.6	1	6	112	0.00	29.864 
02:20	44.2	44.2	44.2	88	40.9	1	3	112	0.01	29.864 
02:25	44.2	44.2	44.2	88	40.9	1	4	112	0.01	29.864 
02:30	44.1	44.1	44.1	88	40.8	2	5	112	0.01	29.863 
02:35	44.1	44.1	44.1	88	40.8	1	5	112	0.01	29.863 
02:40	43.9	43.9	43.9	88	40.6	1	5	112	0.00	29.863 
02:45	43.9	43.9	43.9	88	40.6	1	4	135	0.01	29.850 
02:50	43.8	43.8	43.8	88	40.5	1	4	112	0.01	29.850 
02:55	43.8	43.8	43.8	89	40.8	1	3	112	0.02	29.850 
03:00	43.6	43.6	43.6	89	40.6	0	3	90	0.02	29.863 
03:05	43.5	43.5	43.5	89	40.5	1	4	90	0.01	29.863 
03:10	43.5	43.5	43.5	89	40.5	1	3	135	0.02	29.863 
03:15	43.3	43.3	43.3	89	40.3	1	2	112	0.03	29.864 
03:20	43.1	43.1	43.1	89	40.1	1	3	112	0.03	29.864 
03:25	42.9	42.9	42.9	90	40.2	1	3	112	0.03	29.864 
03:30	42.8	42.8	42.8	90	40.1	2	7	90	0.02	29.851 
03:35	42.6	42.6	42.6	90	39.9	3	7	135	0.01	29.851 
03:40	42.5	42.5	42.5	90	39.8	2	6	90	0.00	29.851 
03:45	42.5	42.5	42.5	91	40.1	2	7	112	0.01	29.844 
03:50	42.3	42.3	42.3	91	39.9	2	5	90	0.00	29.844 
03:55	42.3	42.3	42.3	91	39.9	2	6	112	0.01	29.844 
04:00	42.3	42.3	42.3	91	39.9	2	6	112	0.00	29.833 
04:05	42.3	42.3	42.3	91	39.9	2	6	90	0.01	29.833 
04:10	42.2	42.2	42.2	92	40.0	3	7	90	0.01	29.833 
04:15	42.1	42.1	42.1	92	39.9	3	6	90	0.00	29.829 
04:20	42.1	42.1	42.1	92	39.9	2	6	90	0.00	29.829 
04:25	42.1	42.1	42.1	92	39.9	3	7	112	0.01	29.829 
04:30	41.9	41.9	41.9	92	39.7	3	7	68	0.00	29.826 
04:35	41.9	41.9	41.9	92	39.7	2	5	90	0.00	29.826 
04:40	41.9	41.9	41.9	92	39.7	3	7	90	0.01	29.826 
04:45	41.8	39.4	41.8	92	39.6	4	7	90	0.00	29.819 
04:50	41.8	41.8	41.8	92	39.6	3	7	90	0.00	29.819 
04:55	41.8	41.8	41.8	92	39.6	3	11	90	0.00	29.819 
05:00	41.8	41.8	41.8	92	39.6	3	7	112	0.00	29.819 
05:05	41.8	41.8	41.8	92	39.6	3	9	112	0.00	29.819 
05:10	41.8	41.8	41.8	92	39.6	2	6	112	0.01	29.819 
05:15	41.9	41.9	41.9	92	39.7	3	6	112	0.00	29.822 
05:20	41.9	41.9	41.9	92	39.7	3	7	90	0.00	29.822 
05:25	41.9	41.9	41.9	92	39.7	3	6	90	0.00	29.822 
05:30	41.9	41.9	41.9	92	39.7	3	7	112	0.00	29.827 
05:35	41.9	41.9	41.9	92	39.7	3	7	112	0.00	29.827 
05:40	41.9	41.9	41.9	92	39.7	2	6	90	0.00	29.827 
05:45	42.1	42.1	42.1	92	39.9	3	6	90	0.00	29.836 
05:50	42.1	42.1	42.1	92	39.9	3	6	112	0.00	29.836 
05:55	42.1	42.1	42.1	92	39.9	3	6	90	0.00	29.836 
06:00	42.2	42.2	42.2	92	40.0	3	7	90	0.00	29.835 
06:05	42.1	39.7	42.1	91	39.7	4	9	90	0.00	29.835 
06:10	42.1	39.7	42.1	91	39.7	4	8	90	0.00	29.835 
06:15	42.1	42.1	42.1	91	39.7	3	7	90	0.00	29.830 
06:20	42.1	42.1	42.1	92	39.9	3	7	90	0.00	29.830 
06:25	42.1	42.1	42.1	92	39.9	2	9	112	0.00	29.830 
06:30	42.2	42.2	42.2	92	40.0	3	5	112	0.00	29.836 
06:35	42.2	42.2	42.2	92	40.0	2	6	112	0.00	29.836 
06:40	42.2	42.2	42.2	92	40.0	2	5	90	0.00	29.836 
06:45	42.2	42.2	42.2	92	40.0	1	6	90	0.00	29.851 
06:50	42.3	42.3	42.3	92	40.1	2	5	90	0.00	29.851 
06:55	42.3	42.3	42.3	91	39.9	2	6	112	0.00	29.851 
07:00	42.3	42.3	42.3	91	39.9	1	10	112	0.00	29.853 
07:05	42.3	42.3	42.3	91	39.9	2	7	90	0.00	29.853 
07:10	42.3	42.3	42.3	91	39.9	2	4	112	0.00	29.853 
07:15	42.3	42.3	42.3	91	39.9	3	6	112	0.00	29.861 
07:20	42.3	42.3	42.3	91	39.9	2	6	112	0.00	29.861 
07:25	42.5	42.5	42.5	91	40.1	1	4	112	0.00	29.861 
07:30	42.5	42.5	42.5	91	40.1	1	5	112	0.00	29.867 
07:35	42.5	42.5	42.5	91	40.1	3	6	112	0.00	29.867 
07:40	42.5	42.5	42.5	91	40.1	2	6	90	0.00	29.867 
07:45	42.6	42.6	42.6	91	40.2	2	5	68	0.00	29.870 
07:50	42.6	42.6	42.6	91	40.2	2	6	112	0.00	29.870 
07:55	42.8	42.8	42.8	91	40.4	1	4	68	0.00	29.870 
08:00	42.9	42.9	42.9	90	40.2	2	6	112	0.00	29.865 
08:05	42.9	42.9	42.9	91	40.5	1	4	112	0.00	29.865 
08:10	42.9	42.9	42.9	90	40.2	3	5	112	0.00	29.865 
08:15	43.1	43.1	43.1	90	40.4	3	6	112	0.00	29.873 
08:20	43.2	43.2	43.2	90	40.5	2	6	90	0.00	29.873 
08:25	43.2	43.2	43.2	89	40.2	2	4	112	0.00	29.873 
08:30	43.3	43.3	43.3	89	40.3	2	6	112	0.00	29.874 
08:35	43.5	43.5	43.5	88	40.2	2	4	90	0.00	29.874 
08:40	43.6	43.6	43.6	88	40.3	3	7	90	0.00	29.874 
08:45	43.8	43.8	43.8	87	40.2	2	6	112	0.00	29.882 
08:50	43.9	43.9	43.9	87	40.3	0	3	112	0.00	29.882 
08:55	43.9	43.9	43.9	87	40.3	1	5	112	0.00	29.882 
09:00	43.9	43.9	43.9	86	40.0	3	7	90	0.00	29.874 
09:05	43.9	43.9	43.9	86	40.0	2	10	112	0.00	29.874 
09:10	43.9	43.9	43.9	86	40.0	3	11	112	0.01	29.874 
09:15	43.9	41.8	43.9	87	40.3	4	10	90	0.00	29.855 
09:20	43.9	41.8	43.9	88	40.6	4	9	90	0.01	29.855 
09:25	43.9	41.1	43.9	88	40.6	5	12	112	0.00	29.855 
09:30	43.9	41.1	43.9	89	40.9	5	9	112	0.00	29.838 
09:35	44.1	41.3	44.1	89	41.1	5	11	112	0.00	29.838 
09:40	44.2	41.4	44.2	89	41.2	5	12	112	0.00	29.838 
09:45	44.3	41.5	44.3	88	41.0	5	13	90	0.00	29.833 
09:50	44.3	40.3	44.3	87	40.7	7	13	112	0.00	29.833 
09:55	44.2	40.2	44.2	86	40.3	7	17	112	0.00	29.833 
10:00	44.2	41.4	44.2	86	40.3	5	10	112	0.00	29.836 
10:05	44.5	41.8	44.5	87	40.9	5	12	90	0.00	29.836 
10:10	44.8	42.1	44.8	86	40.9	5	10	90	0.00	29.836 
10:15	45.1	43.2	45.1	86	41.2	4	11	112	0.00	29.843 
10:20	45.1	43.2	45.1	85	40.9	4	12	112	0.00	29.843 
10:25	45.1	43.2	45.1	85	40.9	4	9	90	0.00	29.843 
10:30	45.2	43.3	45.2	86	41.3	4	9	112	0.00	29.847 
10:35	45.4	42.8	45.4	85	41.2	5	13	112	0.00	29.847 
10:40	45.5	43.7	45.5	85	41.3	4	10	112	0.00	29.847 
10:45	45.5	45.5	45.5	85	41.3	3	9	90	0.00	29.852 
10:50	45.5	43.7	45.5	84	41.0	4	9	112	0.00	29.852 
10:55	45.4	42.8	45.4	84	40.9	5	10	90	0.00	29.852 
11:00	45.5	45.5	45.5	85	41.3	3	9	90	0.00	29.856 
11:05	45.7	45.7	45.7	85	41.5	3	7	90	0.00	29.856 
11:10	45.8	44.0	45.8	84	41.2	4	10	90	0.00	29.856 
11:15	45.7	43.2	45.7	84	41.1	5	10	90	0.00	29.860 
11:20	45.8	43.3	45.8	84	41.2	5	12	90	0.00	29.860 
11:25	45.8	43.3	45.8	84	41.2	5	11	90	0.00	29.860 
11:30	46.0	46.0	46.0	84	41.4	2	5	112	0.00	29.865 
11:35	46.2	46.2	46.2	84	41.6	3	9	90	0.00	29.865 
11:40	46.2	46.2	46.2	84	41.6	3	9	90	0.00	29.865 
11:45	46.4	46.4	46.4	84	41.8	3	7	90	0.00	29.870 
11:50	46.4	46.4	46.4	84	41.8	3	7	112	0.00	29.870 
11:55	46.4	44.7	46.4	84	41.8	4	7	112	0.00	29.870 
12:00	46.5	46.5	46.5	84	41.9	3	10	112	0.00	29.875 
12:05	46.5	44.1	46.5	84	41.9	5	10	112	0.00	29.875 
12:10	46.7	45.1	46.7	84	42.1	4	10	90	0.00	29.875 
12:15	46.8	45.2	46.8	84	42.2	4	7	90	0.00	29.878 
12:20	47.0	47.0	47.0	84	42.4	2	6	112	0.00	29.878 
12:25	47.3	47.3	47.3	84	42.7	1	4	90	0.00	29.878 
12:30	47.4	47.4	47.4	84	42.8	2	5	112	0.00	29.880 
12:35	47.4	47.4	47.4	83	42.5	3	7	112	0.00	29.880 
12:40	47.6	47.6	47.6	84	43.0	1	4	90	0.00	29.880 
12:45	47.7	47.7	47.7	84	43.1	1	4	112	0.00	29.877 
12:50	47.7	47.7	47.7	84	43.1	2	5	90	0.00	29.877 
12:55	48.0	48.0	48.0	83	43.1	3	9	112	0.00	29.877 
13:00	48.2	46.8	48.2	82	43.0	4	9	112	0.00	29.870 
13:05	48.3	48.3	48.3	82	43.1	2	7	90	0.00	29.870 
13:10	48.5	47.1	48.5	82	43.3	4	9	112	0.00	29.870 
13:15	48.6	48.6	48.6	82	43.4	3	6	112	0.00	29.870 
13:20	48.9	48.9	48.9	82	43.6	2	7	68	0.00	29.870 
13:25	49.1	49.1	49.1	82	43.8	3	7	90	0.00	29.870 
13:30	48.9	48.9	48.9	81	43.3	2	6	90	0.00	29.877 
13:35	48.9	48.9	48.9	82	43.6	3	7	90	0.00	29.877 
13:40	49.1	49.1	49.1	82	43.8	1	4	112	0.00	29.877 
13:45	49.1	49.1	49.1	82	43.8	2	7	90	0.00	29.876 
13:50	49.2	49.2	49.2	82	43.9	2	6	112	0.00	29.876 
13:55	49.2	49.2	49.2	82	43.9	2	7	112	0.00	29.876 
14:00	49.5	49.5	49.5	82	44.2	2	7	112	0.00	29.869 
14:05	49.6	49.6	49.6	82	44.3	3	7	90	0.00	29.869 
14:10	49.8	49.8	49.8	82	44.5	2	9	112	0.00	29.869 
14:15	49.9	49.9	49.9	81	44.3	3	6	90	0.00	29.872 
14:20	49.9	49.9	49.9	81	44.3	3	6	90	0.00	29.872 
14:25	50.1	50.1	50.1	81	44.5	3	8	112	0.00	29.872 
14:30	50.2	50.2	50.2	82	44.9	2	6	90	0.00	29.875 
14:35	50.4	50.4	50.4	81	44.8	2	6	112	0.00	29.875 
14:40	50.5	50.5	50.5	81	44.9	2	6	112	0.00	29.875 
14:45	50.5	50.5	50.5	81	44.9	3	6	90	0.00	29.884 
14:50	50.8	50.8	50.8	81	45.2	2	4	90	0.00	29.884 
14:55	51.0	51.0	51.0	81	45.4	2	5	90	0.00	29.884 
15:00	51.0	51.0	51.0	80	45.0	1	7	90	0.00	29.885 
15:05	51.1	51.1	51.1	80	45.1	3	7	112	0.00	29.885 
15:10	51.1	51.1	51.1	80	45.1	3	7	112	0.00	29.885 
15:15	51.3	51.3	51.3	80	45.3	3	6	90	0.00	29.886 
15:20	51.4	51.4	51.4	79	45.1	3	8	90	0.00	29.886 
15:25	51.6	51.6	51.6	80	45.6	2	7	90	0.00	29.886 
15:30	51.6	51.6	51.6	79	45.3	3	7	90	0.00	29.879 
15:35	51.9	51.9	51.9	79	45.6	3	10	90	0.00	29.879 
15:40	52.2	52.2	52.2	78	45.5	3	6	90	0.00	29.879 
15:45	52.3	52.3	52.3	78	45.6	3	9	112	0.00	29.876 
15:50	52.5	52.5	52.5	77	45.5	3	10	112	0.00	29.876 
15:55	52.5	52.5	52.5	78	45.8	4	10	90	0.00	29.876 
16:00	52.5	52.5	52.5	78	45.8	3	10	112	0.00	29.870 
16:05	52.6	52.6	52.6	77	45.6	4	6	90	0.00	29.870 
16:10	52.6	52.6	52.6	78	45.9	3	6	112	0.00	29.870 
16:15	52.5	52.5	52.5	77	45.5	3	6	112	0.00	29.884 
16:20	52.5	52.5	52.5	78	45.8	3	7	90	0.00	29.884 
16:25	52.3	52.3	52.3	78	45.6	4	8	112	0.00	29.884 
16:30	52.2	52.2	52.2	78	45.5	4	6	90	0.00	29.879 
16:35	52.2	52.2	52.2	79	45.9	3	6	90	0.00	29.879 
16:40	52.2	52.2	52.2	79	45.9	3	11	90	0.00	29.879 
16:45	52.2	52.2	52.2	80	46.2	2	5	90	0.00	29.885 
16:50	52.2	52.2	52.2	79	45.9	2	6	90	0.00	29.885 
16:55	52.2	52.2	52.2	80	46.2	2	5	112	0.00	29.885 
17:00	52.0	52.0	52.0	80	46.0	3	7	90	0.00	29.883 
17:05	52.0	52.0	52.0	80	46.0	3	9	90	0.00	29.883 
17:10	52.0	52.0	52.0	81	46.4	3	7	112	0.00	29.883 
17:15	52.0	52.0	52.0	81	46.4	3	6	90	0.00	29.872 
17:20	52.2	52.2	52.2	80	46.2	4	7	90	0.00	29.872 
17:25	52.3	52.3	52.3	81	46.6	3	6	90	0.00	29.872 
17:30	52.3	52.3	52.3	80	46.3	4	9	90	0.00	29.868 
17:35	52.2	52.2	52.2	80	46.2	3	9	90	0.00	29.868 
17:40	52.0	52.0	52.0	80	46.0	4	9	112	0.00	29.868 
17:45	51.9	51.9	51.9	81	46.3	3	9	112	0.00	29.880 
17:50	51.9	51.9	51.9	80	45.9	3	6	90	0.00	29.880 
17:55	51.6	51.6	51.6	80	45.6	3	6	112	0.00	29.880 
18:00	51.7	51.7	51.7	81	46.1	2	6	90	0.00	29.883 
18:05	51.7	51.7	51.7	81	46.1	2	4	90	0.00	29.883 
18:10	51.9	51.9	51.9	80	45.9	2	5	112	0.00	29.883 
18:15	51.7	51.7	51.7	80	45.7	2	8	112	0.00	29.887 
18:20	51.7	51.7	51.7	80	45.7	2	5	112	0.00	29.887 
18:25	51.7	51.7	51.7	79	45.4	3	9	112	0.00	29.887 
18:30	51.6	51.6	51.6	79	45.3	4	9	112	0.00	29.888 
18:35	51.6	51.6	51.6	79	45.3	3	7	90	0.00	29.888 
18:40	51.4	51.4	51.4	79	45.1	3	6	90	0.00	29.888 
18:45	51.3	51.3	51.3	79	45.0	2	5	90	0.00	29.899 
18:50	51.3	51.3	51.3	80	45.3	2	5	112	0.00	29.899 
18:55	51.3	51.3	51.3	80	45.3	3	6	112	0.00	29.899 
19:00	51.4	51.4	51.4	80	45.4	2	5	90	0.00	29.902 
19:05	51.6	51.6	51.6	80	45.6	1	3	90	0.00	29.902 
19:10	51.6	51.6	51.6	79	45.3	2	4	90	0.00	29.902 
19:15	51.6	51.6	51.6	79	45.3	1	4	90	0.00	29.909 
19:20	51.6	51.6	51.6	79	45.3	1	4	90	0.00	29.909 
19:25	51.4	51.4	51.4	78	44.8	2	4	90	0.00	29.909 
19:30	51.3	51.3	51.3	78	44.7	2	5	90	0.00	29.915 
19:35	51.1	51.1	51.1	77	44.1	3	7	112	0.00	29.915 
19:40	51.0	51.0	51.0	76	43.7	0	1	90	0.00	29.915 
19:45	51.0	51.0	51.0	76	43.7	1	5	90	0.00	29.917 
19:50	50.8	50.8	50.8	77	43.9	2	6	112	0.00	29.917 
19:55	50.7	50.7	50.7	76	43.4	0	3	112	0.00	29.917 
20:00	50.4	50.4	50.4	75	42.8	0	3	0	0.00	29.931 
20:05	50.2	50.2	50.2	75	42.6	0	1	0	0.00	29.931 
20:10	50.2	50.2	50.2	75	42.6	0	2	0	0.00	29.931 
20:15	50.1	50.1	50.1	75	42.5	0	1	0	0.00	29.933 
20:20	50.1	50.1	50.1	75	42.5	0	3	0	0.00	29.933 
20:25	49.9	49.9	49.9	75	42.3	0	2	68	0.00	29.933 
20:30	49.6	49.6	49.6	74	41.7	0	3	68	0.00	29.935 
20:35	49.5	49.5	49.5	74	41.6	0	2	68	0.00	29.935 
20:40	49.5	49.5	49.5	74	41.6	0	2	68	0.00	29.935 
20:45	49.4	49.4	49.4	75	41.8	0	1	68	0.00	29.945 
20:50	49.4	49.4	49.4	74	41.5	0	1	68	0.00	29.945 
20:55	49.2	49.2	49.2	74	41.3	0	1	68	0.00	29.945 
21:00	49.1	49.1	49.1	74	41.2	0	1	68	0.00	29.951 
21:05	48.9	48.9	48.9	74	41.0	0	2	68	0.00	29.951 
21:10	48.8	48.8	48.8	73	40.5	0	2	68	0.00	29.951 
21:15	48.6	48.6	48.6	73	40.3	1	3	68	0.00	29.952 
21:20	48.6	48.6	48.6	74	40.7	0	4	68	0.00	29.952 
21:25	48.5	48.5	48.5	73	40.2	1	4	90	0.00	29.952 
21:30	48.3	48.3	48.3	73	40.1	0	2	90	0.00	29.951 
21:35	48.3	48.3	48.3	73	40.1	0	2	68	0.00	29.951 
21:40	48.2	48.2	48.2	74	40.3	0	2	68	0.00	29.951 
21:45	48.2	48.2	48.2	75	40.7	0	2	68	0.00	29.953 
21:50	48.0	48.0	48.0	75	40.5	1	3	68	0.00	29.953 
21:55	47.9	47.9	47.9	75	40.4	1	5	135	0.00	29.953 
22:00	47.7	47.7	47.7	74	39.8	1	3	112	0.00	29.956 
22:05	47.6	47.6	47.6	74	39.7	1	4	68	0.00	29.956 
22:10	47.6	47.6	47.6	74	39.7	1	4	90	0.00	29.956 
22:15	47.4	47.4	47.4	74	39.5	1	3	90	0.00	29.965 
22:20	47.3	47.3	47.3	73	39.1	2	4	90	0.00	29.965 
22:25	47.1	47.1	47.1	73	38.9	2	5	90	0.00	29.965 
22:30	47.0	47.0	47.0	73	38.8	0	4	90	0.00	29.973 
22:35	47.0	47.0	47.0	73	38.8	1	3	135	0.00	29.973 
22:40	47.0	47.0	47.0	73	38.8	0	2	135	0.00	29.973 
22:45	47.0	47.0	47.0	73	38.8	0	3	135	0.00	29.975 
22:50	46.8	46.8	46.8	73	38.6	1	4	90	0.00	29.975 
22:55	46.8	46.8	46.8	73	38.6	1	5	90	0.00	29.975 
23:00	46.8	46.8	46.8	74	39.0	0	2	90	0.00	29.964 
23:05	46.8	46.8	46.8	73	38.6	1	4	90	0.00	29.964 
23:10	46.7	46.7	46.7	73	38.5	1	3	45	0.00	29.964 
23:15	46.7	46.7	46.7	73	38.5	1	4	90	0.00	29.972 
23:20	46.7	46.7	46.7	74	38.9	0	2	90	0.00	29.972 
23:25	46.7	46.7	46.7	74	38.9	1	5	90	0.00	29.972 
23:30	46.5	46.5	46.5	74	38.7	0	1	112	0.00	29.966 
23:35	46.5	46.5	46.5	74	38.7	0	5	112	0.00	29.966 
23:40	46.4	46.4	46.4	74	38.6	0	2	112	0.00	29.966 
23:45	46.4	46.4	46.4	74	38.6	0	3	112	0.00	29.970 
23:50	46.4	46.4	46.4	74	38.6	0	2	112	0.00	29.970 
23:55	46.4	46.4	46.4	75	38.9	0	1	112	0.00	29.970 

CoCoRaHS
IN-AL-39
A2 Web Hosting
Creative Commons License
GoDaddy
search engine by freefind advanced

loaded 2018-11-15 13:39:57 • last modified 2010-11-18 10:43:29
Privacy PolicyDisclaimer
• wx.awcolley.com is powered by PmWiki v.2002016 •
• all content (unless otherwise noted) © 2018 A W Colley